Time;durP1;ratioP1;P1;durP2;ratioP2;P2;SDS_P1;SDS_P2;PMS_P1;PMS_P2;Temp;Humidity;BMP_temperature;BMP_pressure;BME280_temperature;BME280_humidity;BME280_pressure;Samples;Min_cycle;Max_cycle;Signal;HPM_P1;HPM_P2
2022/08/29 00:02:10;;;;;;;2.40;1.10;;;21.20;51.10;;;;;;5013925;28;20032;-82
2022/08/29 00:04:36;;;;;;;1.25;1.10;;;21.20;51.20;;;;;;5012264;28;20035;-81
2022/08/29 00:07:02;;;;;;;1.98;1.30;;;21.20;51.10;;;;;;4997404;28;20489;-81
2022/08/29 00:09:28;;;;;;;0.90;0.90;;;21.20;51.20;;;;;;4999388;28;20049;-81
2022/08/29 00:11:54;;;;;;;1.17;1.08;;;21.20;51.20;;;;;;5033531;28;20485;-81
2022/08/29 00:14:19;;;;;;;1.17;1.05;;;21.10;51.20;;;;;;5029193;28;20476;-81
2022/08/29 00:16:45;;;;;;;1.00;0.95;;;21.10;51.30;;;;;;5014754;28;20435;-81
2022/08/29 00:19:11;;;;;;;1.15;1.05;;;21.10;52.00;;;;;;5029392;28;20033;-81
2022/08/29 00:21:37;;;;;;;1.70;1.00;;;21.00;51.30;;;;;;5015818;28;20405;-82
2022/08/29 00:24:02;;;;;;;1.33;1.15;;;21.00;51.40;;;;;;5012942;28;20122;-81
2022/08/29 00:26:28;;;;;;;1.33;1.10;;;21.00;51.40;;;;;;5029696;28;20025;-81
2022/08/29 00:28:54;;;;;;;1.13;1.00;;;21.00;51.40;;;;;;5015062;28;20512;-80
2022/08/29 00:31:20;;;;;;;1.40;1.00;;;20.90;51.40;;;;;;5000457;28;20025;-81
2022/08/29 00:33:45;;;;;;;1.70;1.15;;;20.90;51.50;;;;;;5031605;28;20029;-81
2022/08/29 00:36:11;;;;;;;1.67;1.00;;;20.90;51.60;;;;;;5030966;28;20379;-81
2022/08/29 00:38:37;;;;;;;1.10;1.00;;;20.80;51.50;;;;;;5015189;28;20390;-81
2022/08/29 00:41:03;;;;;;;1.42;1.00;;;20.80;51.60;;;;;;5030280;28;20084;-81
2022/08/29 00:43:34;;;;;;;1.17;1.00;;;20.80;51.60;;;;;;5032165;28;20040;-81
2022/08/29 00:46:28;;;;;;;1.50;0.93;;;20.80;51.70;;;;;;5034457;28;20025;-81
2022/08/29 00:49:02;;;;;;;1.13;1.00;;;20.70;51.80;;;;;;5029366;28;20029;-81
2022/08/29 00:51:28;;;;;;;1.10;1.00;;;20.70;51.70;;;;;;5027866;28;20031;-81
2022/08/29 00:54:01;;;;;;;1.10;1.00;;;20.70;51.70;;;;;;5021295;28;20038;-81
2022/08/29 00:56:28;;;;;;;1.10;1.00;;;20.70;51.90;;;;;;5039691;28;20029;-81
2022/08/29 00:59:06;;;;;;;1.90;1.17;;;20.60;51.80;;;;;;5036481;28;20030;-81
2022/08/29 01:01:32;;;;;;;1.20;1.10;;;20.60;51.90;;;;;;5049362;28;20029;-81
2022/08/29 01:03:58;;;;;;;1.20;1.10;;;20.50;51.90;;;;;;5031466;28;20112;-81
2022/08/29 01:06:26;;;;;;;1.10;1.00;;;20.50;51.90;;;;;;5031813;28;20117;-81
2022/08/29 01:08:52;;;;;;;1.90;1.20;;;20.50;52.00;;;;;;5011450;28;20116;-81
2022/08/29 01:14:04;;;;;;;1.30;1.13;;;20.50;52.10;;;;;;5029436;28;20052;-81
2022/08/29 01:16:31;;;;;;;1.20;0.85;;;20.40;52.00;;;;;;5013257;28;20467;-81
2022/08/29 01:19:02;;;;;;;1.02;0.93;;;20.40;52.10;;;;;;5012922;28;20108;-82
2022/08/29 01:21:33;;;;;;;1.52;1.10;;;20.40;52.20;;;;;;5028301;28;20047;-81
2022/08/29 01:24:26;;;;;;;1.95;1.30;;;20.30;52.10;;;;;;5011180;28;20025;-81
2022/08/29 01:26:52;;;;;;;1.98;1.00;;;20.30;52.20;;;;;;5031485;28;20140;-81
2022/08/29 01:29:18;;;;;;;1.77;1.17;;;20.30;52.20;;;;;;5005591;28;20121;-81
2022/08/29 01:31:47;;;;;;;1.48;1.20;;;20.30;52.20;;;;;;5013263;28;20025;-81
2022/08/29 01:34:15;;;;;;;1.10;1.00;;;20.30;52.40;;;;;;5009261;28;20032;-81
2022/08/29 01:36:46;;;;;;;1.40;0.93;;;20.20;52.30;;;;;;5027603;28;20064;-81
2022/08/29 01:39:12;;;;;;;1.25;1.00;;;20.20;52.40;;;;;;5026611;28;20115;-83
2022/08/29 01:41:40;;;;;;;1.15;1.05;;;20.20;52.40;;;;;;5008236;28;20041;-81
2022/08/29 01:44:12;;;;;;;1.00;0.95;;;20.20;52.40;;;;;;5028814;28;20043;-81
2022/08/29 01:46:39;;;;;;;1.65;1.10;;;20.10;52.50;;;;;;5027883;28;20029;-81
2022/08/29 01:49:07;;;;;;;1.63;1.05;;;20.10;52.50;;;;;;5028306;28;20112;-81
2022/08/29 01:51:34;;;;;;;1.05;0.95;;;20.10;52.50;;;;;;5024701;28;20021;-81
2022/08/29 01:54:00;;;;;;;1.90;1.27;;;20.10;52.60;;;;;;5008895;28;20145;-80
2022/08/29 01:56:29;;;;;;;1.20;1.10;;;20.00;52.60;;;;;;4997537;28;20490;-81
2022/08/29 01:58:58;;;;;;;1.65;1.20;;;20.00;52.70;;;;;;5029247;28;20040;-81
2022/08/29 02:01:30;;;;;;;1.55;1.17;;;20.00;52.70;;;;;;5029062;28;20030;-81
2022/08/29 02:03:57;;;;;;;1.55;1.10;;;20.00;52.70;;;;;;5028147;28;20115;-81
2022/08/29 02:06:24;;;;;;;1.40;0.95;;;20.00;52.80;;;;;;5013386;28;20125;-80
2022/08/29 02:08:50;;;;;;;1.48;1.17;;;19.90;52.70;;;;;;5010797;28;20089;-81
2022/08/29 02:11:17;;;;;;;1.08;0.98;;;19.90;52.80;;;;;;5009613;28;20030;-82
2022/08/29 02:13:54;;;;;;;1.52;1.20;;;19.90;52.80;;;;;;5012863;28;20045;-81
2022/08/29 02:16:21;;;;;;;1.85;1.10;;;19.90;52.90;;;;;;5026592;28;20044;-81
2022/08/29 02:18:47;;;;;;;1.05;1.00;;;19.90;52.90;;;;;;5033669;28;20026;-81
2022/08/29 02:21:16;;;;;;;1.98;1.33;;;19.80;52.90;;;;;;5027890;28;20466;-81
2022/08/29 02:23:43;;;;;;;1.65;1.02;;;19.80;52.90;;;;;;5029536;28;20033;-81
2022/08/29 02:26:08;;;;;;;2.75;1.10;;;19.80;53.00;;;;;;5029368;28;20028;-81
2022/08/29 02:28:36;;;;;;;1.10;1.00;;;19.70;53.00;;;;;;5030554;28;20025;-81
2022/08/29 02:31:03;;;;;;;1.25;1.00;;;19.70;53.00;;;;;;5032566;28;20536;-82
2022/08/29 02:33:30;;;;;;;3.17;1.15;;;19.70;53.10;;;;;;5031895;28;20020;-81
2022/08/29 02:35:57;;;;;;;2.47;1.30;;;19.70;53.10;;;;;;5031392;28;20049;-81
2022/08/29 02:38:23;;;;;;;1.15;1.00;;;19.60;53.10;;;;;;5033112;28;20053;-80
2022/08/29 02:40:49;;;;;;;1.88;1.60;;;19.60;53.10;;;;;;4999348;28;20095;-80
2022/08/29 02:43:16;;;;;;;1.95;1.20;;;19.60;53.20;;;;;;5001156;28;20041;-80
2022/08/29 02:45:42;;;;;;;1.55;1.15;;;19.60;53.20;;;;;;5012678;28;20029;-81
2022/08/29 02:48:10;;;;;;;1.67;1.10;;;19.60;53.30;;;;;;5031516;28;20473;-80
2022/08/29 02:50:40;;;;;;;1.58;1.20;;;19.60;53.30;;;;;;5015048;28;20049;-81
2022/08/29 02:53:06;;;;;;;1.73;1.17;;;19.50;53.30;;;;;;5035912;28;20489;-81
2022/08/29 02:55:32;;;;;;;1.20;1.10;;;19.50;53.30;;;;;;5032709;28;20029;-81
2022/08/29 02:57:58;;;;;;;1.45;1.20;;;19.50;53.30;;;;;;5032541;28;20021;-82
2022/08/29 03:00:26;;;;;;;1.35;1.23;;;19.40;53.30;;;;;;5030124;28;20038;-81
2022/08/29 03:02:53;;;;;;;1.85;1.20;;;19.40;53.40;;;;;;5029956;28;20022;-81
2022/08/29 03:05:23;;;;;;;1.33;1.00;;;19.40;53.40;;;;;;5031973;28;20030;-81
2022/08/29 03:07:51;;;;;;;2.47;1.40;;;19.40;53.50;;;;;;5012949;28;20390;-81
2022/08/29 03:10:18;;;;;;;1.20;1.10;;;19.40;53.40;;;;;;5015829;28;20120;-81
2022/08/29 03:12:45;;;;;;;1.33;1.10;;;19.40;53.50;;;;;;5027052;28;20064;-81
2022/08/29 03:15:11;;;;;;;1.42;1.10;;;19.40;53.60;;;;;;5029435;28;20104;-81
2022/08/29 03:17:37;;;;;;;1.23;1.10;;;19.30;53.50;;;;;;5015895;28;20160;-81
2022/08/29 03:20:04;;;;;;;1.73;1.08;;;19.30;53.60;;;;;;5032904;28;20132;-81
2022/08/29 03:22:31;;;;;;;1.35;1.17;;;19.30;53.60;;;;;;5031192;28;20635;-81
2022/08/29 03:25:01;;;;;;;2.40;1.15;;;19.20;53.60;;;;;;5015171;28;20060;-80
2022/08/29 03:27:28;;;;;;;3.00;1.15;;;19.20;53.60;;;;;;5017380;28;20044;-80
2022/08/29 03:29:53;;;;;;;2.38;1.40;;;19.20;53.70;;;;;;5032253;28;20032;-80
2022/08/29 03:32:19;;;;;;;1.30;1.20;;;19.20;53.70;;;;;;5014354;28;20030;-82
2022/08/29 03:34:45;;;;;;;1.20;1.10;;;19.20;53.70;;;;;;5013604;28;20055;-81
2022/08/29 03:37:11;;;;;;;1.55;1.30;;;19.10;53.70;;;;;;5028846;28;20038;-82
2022/08/29 03:39:36;;;;;;;2.15;1.38;;;19.10;53.70;;;;;;5029037;28;20053;-81
2022/08/29 03:42:06;;;;;;;1.30;1.15;;;19.10;53.70;;;;;;5020645;28;21237;-81
2022/08/29 03:44:34;;;;;;;1.88;1.25;;;19.10;53.80;;;;;;5029186;28;20057;-82
2022/08/29 03:47:00;;;;;;;1.85;1.20;;;19.10;53.80;;;;;;5032440;28;20010;-82
2022/08/29 03:49:26;;;;;;;2.38;1.25;;;19.10;53.80;;;;;;5029706;28;20531;-81
2022/08/29 03:51:52;;;;;;;2.33;1.40;;;19.00;53.80;;;;;;5015708;28;20109;-81
2022/08/29 03:54:18;;;;;;;3.42;1.50;;;19.00;53.80;;;;;;5017566;28;20167;-81
2022/08/29 03:56:45;;;;;;;1.52;1.15;;;19.00;53.90;;;;;;5028100;28;20552;-81
2022/08/29 03:59:11;;;;;;;1.60;1.20;;;19.00;53.90;;;;;;5013707;28;20398;-80
2022/08/29 04:01:37;;;;;;;2.17;1.30;;;18.90;53.90;;;;;;5030635;28;20079;-81
2022/08/29 04:04:03;;;;;;;1.30;1.10;;;18.90;53.90;;;;;;5013888;28;20029;-81
2022/08/29 04:06:29;;;;;;;2.15;1.42;;;18.90;53.90;;;;;;5031352;28;20057;-81
2022/08/29 04:08:56;;;;;;;1.63;1.35;;;18.90;54.00;;;;;;5032475;28;20080;-82
2022/08/29 04:11:23;;;;;;;1.67;1.40;;;18.90;54.00;;;;;;5029195;28;20087;-81
2022/08/29 04:13:51;;;;;;;1.83;1.25;;;18.80;54.00;;;;;;4997771;28;20060;-81
2022/08/29 04:16:24;;;;;;;2.40;1.50;;;18.80;54.00;;;;;;4997693;28;20036;-81
2022/08/29 04:18:50;;;;;;;2.20;1.30;;;18.80;54.10;;;;;;5033679;28;20049;-81
2022/08/29 04:21:17;;;;;;;1.88;1.27;;;18.80;54.10;;;;;;5011897;28;20259;-81
2022/08/29 04:23:48;;;;;;;2.10;1.30;;;18.80;54.10;;;;;;5030526;28;20021;-81
2022/08/29 04:26:17;;;;;;;1.50;1.15;;;18.80;54.20;;;;;;5029463;28;20018;-82
2022/08/29 04:28:43;;;;;;;1.63;1.30;;;18.80;54.20;;;;;;5033229;28;20032;-82
2022/08/29 04:31:18;;;;;;;2.95;1.70;;;18.70;54.20;;;;;;5030942;28;20061;-81
2022/08/29 04:33:45;;;;;;;2.05;1.25;;;18.70;54.30;;;;;;5028791;28;20037;-81
2022/08/29 04:36:11;;;;;;;1.67;1.50;;;18.70;54.30;;;;;;5027160;28;20471;-81
2022/08/29 04:38:37;;;;;;;1.70;1.27;;;18.70;54.30;;;;;;5030887;28;20100;-81
2022/08/29 04:41:05;;;;;;;1.70;1.40;;;18.70;54.40;;;;;;5009615;28;20038;-81
2022/08/29 04:43:30;;;;;;;1.92;1.50;;;18.70;54.40;;;;;;5030221;28;20033;-80
2022/08/29 04:45:57;;;;;;;2.60;1.50;;;18.70;54.40;;;;;;5014180;28;20029;-80
2022/08/29 04:48:23;;;;;;;1.95;1.55;;;18.70;54.50;;;;;;5006503;28;20048;-80
2022/08/29 04:50:56;;;;;;;2.60;1.50;;;18.70;54.50;;;;;;4995599;28;20029;-81
2022/08/29 04:53:24;;;;;;;1.92;1.30;;;18.60;54.50;;;;;;5047853;28;20517;-81
2022/08/29 04:56:05;;;;;;;1.52;1.35;;;18.60;54.50;;;;;;5029318;28;20072;-81
2022/08/29 04:58:33;;;;;;;2.30;1.60;;;18.60;54.60;;;;;;5027091;28;20026;-81
2022/08/29 05:00:58;;;;;;;2.00;1.60;;;18.60;55.20;;;;;;5028712;28;20490;-81
2022/08/29 05:03:24;;;;;;;2.22;1.40;;;18.60;54.60;;;;;;5014580;28;20060;-81
2022/08/29 05:06:01;;;;;;;2.50;1.60;;;18.60;54.60;;;;;;5010102;28;20026;-81
2022/08/29 05:08:28;;;;;;;1.38;1.20;;;18.60;54.70;;;;;;5029434;28;20032;-82
2022/08/29 05:10:54;;;;;;;2.40;1.67;;;18.60;54.60;;;;;;5029395;28;20021;-81
2022/08/29 05:13:21;;;;;;;2.90;1.77;;;18.60;54.70;;;;;;5011306;28;20034;-81
2022/08/29 05:15:48;;;;;;;3.05;1.77;;;18.60;54.70;;;;;;5029168;28;20024;-82
2022/08/29 05:18:16;;;;;;;2.05;1.55;;;18.60;54.70;;;;;;5030972;28;20025;-82
2022/08/29 05:20:44;;;;;;;3.00;1.88;;;18.60;54.80;;;;;;5027933;28;20029;-81
2022/08/29 05:23:11;;;;;;;2.55;1.50;;;18.60;54.80;;;;;;5030501;28;20033;-81
2022/08/29 05:25:38;;;;;;;2.33;1.58;;;18.60;54.80;;;;;;5031290;28;20021;-81
2022/08/29 05:28:04;;;;;;;2.15;1.50;;;18.60;54.80;;;;;;5027907;28;20041;-81
2022/08/29 05:30:30;;;;;;;2.63;1.60;;;18.60;54.80;;;;;;5013127;28;20477;-82
2022/08/29 05:32:57;;;;;;;2.85;1.60;;;18.60;54.80;;;;;;5030833;28;20497;-81
2022/08/29 05:35:23;;;;;;;3.22;1.90;;;18.60;54.80;;;;;;5011590;28;20082;-81
2022/08/29 05:37:49;;;;;;;2.35;1.83;;;18.60;54.90;;;;;;5011176;28;20375;-81
2022/08/29 05:40:15;;;;;;;2.55;1.80;;;18.60;54.80;;;;;;5013630;28;20032;-81
2022/08/29 05:42:41;;;;;;;2.50;1.77;;;18.60;54.80;;;;;;5012726;28;20074;-81
2022/08/29 05:45:08;;;;;;;3.15;1.90;;;18.60;54.90;;;;;;5030010;28;20029;-81
2022/08/29 05:47:34;;;;;;;3.40;1.98;;;18.60;54.90;;;;;;5031188;28;20095;-81
2022/08/29 05:50:00;;;;;;;2.65;1.65;;;18.60;54.90;;;;;;4995938;28;20061;-81
2022/08/29 05:52:26;;;;;;;3.28;1.98;;;18.60;54.90;;;;;;5029838;28;20037;-81
2022/08/29 05:54:52;;;;;;;4.03;2.00;;;18.60;55.00;;;;;;5011656;28;20060;-81
2022/08/29 05:57:22;;;;;;;3.35;1.73;;;18.60;55.00;;;;;;5031415;28;20040;-81
2022/08/29 05:59:50;;;;;;;2.55;1.77;;;18.50;54.90;;;;;;5027791;28;20078;-81
2022/08/29 06:02:16;;;;;;;2.78;1.90;;;18.60;55.00;;;;;;5028139;28;20044;-81
2022/08/29 06:04:42;;;;;;;2.47;1.80;;;18.60;55.00;;;;;;5028455;28;20101;-81
2022/08/29 06:07:08;;;;;;;3.08;1.90;;;18.60;55.00;;;;;;5028509;28;20056;-81
2022/08/29 06:09:35;;;;;;;2.05;1.50;;;18.60;55.00;;;;;;5027880;28;20029;-81
2022/08/29 06:12:02;;;;;;;3.03;1.80;;;18.60;55.00;;;;;;4996068;28;20049;-81
2022/08/29 06:14:27;;;;;;;3.00;1.70;;;18.60;55.00;;;;;;4994083;28;20026;-81
2022/08/29 06:16:54;;;;;;;3.03;1.83;;;18.60;55.00;;;;;;5010424;28;20034;-81
2022/08/29 06:19:20;;;;;;;3.13;1.83;;;18.60;55.00;;;;;;5032657;28;20079;-81
2022/08/29 06:21:46;;;;;;;2.97;1.80;;;18.60;55.00;;;;;;5028827;28;20053;-82
2022/08/29 06:24:12;;;;;;;3.15;1.92;;;18.60;55.00;;;;;;4997287;28;20013;-81
2022/08/29 06:26:38;;;;;;;3.08;1.83;;;18.60;55.00;;;;;;5029340;28;20057;-81
2022/08/29 06:29:06;;;;;;;3.10;1.95;;;18.60;55.00;;;;;;5010893;28;20057;-81
2022/08/29 06:31:32;;;;;;;3.17;1.90;;;18.60;55.00;;;;;;5011185;28;20030;-81
2022/08/29 06:34:01;;;;;;;2.25;1.55;;;18.70;55.00;;;;;;4995705;28;20462;-81
2022/08/29 06:36:28;;;;;;;3.60;2.00;;;18.70;55.00;;;;;;5027127;28;20068;-81
2022/08/29 06:38:55;;;;;;;3.10;1.83;;;18.70;55.00;;;;;;5012180;28;20551;-81
2022/08/29 06:41:23;;;;;;;3.08;1.90;;;18.70;55.00;;;;;;5030689;28;20036;-81
2022/08/29 06:43:49;;;;;;;2.72;1.75;;;18.70;55.00;;;;;;5012007;28;20112;-80
2022/08/29 06:46:19;;;;;;;1.88;1.58;;;18.70;55.00;;;;;;5029382;28;20125;-80
2022/08/29 06:48:45;;;;;;;2.88;1.95;;;18.80;55.10;;;;;;5029354;28;20041;-81
2022/08/29 06:51:11;;;;;;;3.15;1.80;;;18.80;55.00;;;;;;5013772;28;20030;-81
2022/08/29 06:53:36;;;;;;;2.28;1.67;;;18.80;55.00;;;;;;5028099;28;20053;-82
2022/08/29 06:56:06;;;;;;;3.05;1.80;;;18.80;55.00;;;;;;5012728;28;20029;-82
2022/08/29 06:58:33;;;;;;;2.70;1.70;;;18.90;55.10;;;;;;5030509;28;20098;-81
2022/08/29 07:01:08;;;;;;;2.42;1.60;;;18.90;55.00;;;;;;5027539;28;20033;-82
2022/08/29 07:03:34;;;;;;;2.47;1.70;;;18.90;55.10;;;;;;5032016;28;20033;-82
2022/08/29 07:06:00;;;;;;;2.83;1.60;;;18.90;55.00;;;;;;5011540;28;20029;-82
2022/08/29 07:08:26;;;;;;;2.70;1.80;;;18.90;55.00;;;;;;5028705;28;20040;-81
2022/08/29 07:10:51;;;;;;;2.45;1.67;;;19.00;55.10;;;;;;5010458;28;20407;-81
2022/08/29 07:13:17;;;;;;;2.80;1.65;;;19.00;55.10;;;;;;5011545;28;20173;-82
2022/08/29 07:15:43;;;;;;;2.95;1.70;;;19.00;55.10;;;;;;5017525;28;20057;-82
2022/08/29 07:18:09;;;;;;;2.85;1.70;;;19.00;55.00;;;;;;4998603;28;20369;-81
2022/08/29 07:20:38;;;;;;;2.80;1.90;;;19.00;55.00;;;;;;5031495;28;20037;-81
2022/08/29 07:23:05;;;;;;;2.42;1.70;;;19.10;55.10;;;;;;5031941;28;20112;-82
2022/08/29 07:25:31;;;;;;;2.88;1.90;;;19.10;55.10;;;;;;5018533;28;20022;-82
2022/08/29 07:27:57;;;;;;;2.95;1.60;;;19.10;55.00;;;;;;5032218;28;20026;-81
2022/08/29 07:30:23;;;;;;;3.00;1.83;;;19.20;55.00;;;;;;5016367;28;20531;-78
2022/08/29 07:32:49;;;;;;;3.85;1.75;;;19.20;55.00;;;;;;5016587;28;20018;-81
2022/08/29 07:35:16;;;;;;;2.45;1.60;;;19.20;55.10;;;;;;5033383;28;20068;-80
2022/08/29 07:37:42;;;;;;;3.70;2.05;;;19.30;55.10;;;;;;5014446;28;20050;-83
2022/08/29 07:40:11;;;;;;;2.20;1.58;;;19.30;55.10;;;;;;5032549;28;20052;-81
2022/08/29 07:42:38;;;;;;;2.97;1.83;;;19.30;55.20;;;;;;5032662;28;20033;-81
2022/08/29 07:45:05;;;;;;;2.53;1.60;;;19.40;55.20;;;;;;5014504;28;20104;-81
2022/08/29 07:47:33;;;;;;;2.25;1.45;;;19.40;55.10;;;;;;5032679;28;20013;-79
2022/08/29 07:50:00;;;;;;;2.30;1.50;;;19.40;55.00;;;;;;5031519;28;20860;-79
2022/08/29 07:52:28;;;;;;;2.45;1.50;;;19.50;55.00;;;;;;5031404;28;20116;-79
2022/08/29 07:54:54;;;;;;;2.50;1.60;;;19.50;55.00;;;;;;5032095;28;20156;-79
2022/08/29 07:57:21;;;;;;;3.25;1.60;;;19.50;55.00;;;;;;5016351;28;20033;-79
2022/08/29 07:59:47;;;;;;;2.22;1.70;;;19.60;55.00;;;;;;5029724;28;20042;-79
2022/08/29 08:02:13;;;;;;;2.80;1.65;;;19.60;55.00;;;;;;5029569;28;20029;-79
2022/08/29 08:04:39;;;;;;;2.58;1.67;;;19.60;55.00;;;;;;5014221;28;20033;-79
2022/08/29 08:07:05;;;;;;;2.60;1.80;;;19.70;55.00;;;;;;5013796;28;20028;-79
2022/08/29 08:09:30;;;;;;;2.67;1.60;;;19.70;55.00;;;;;;5031173;28;20497;-79
2022/08/29 08:11:56;;;;;;;2.75;1.80;;;19.70;54.90;;;;;;5029903;28;20017;-79
2022/08/29 08:14:22;;;;;;;2.60;1.58;;;19.80;54.90;;;;;;5014499;28;20064;-79
2022/08/29 08:16:47;;;;;;;1.73;1.42;;;19.80;54.90;;;;;;5030903;28;20034;-79
2022/08/29 08:19:14;;;;;;;2.53;1.42;;;19.80;55.00;;;;;;5015514;28;20045;-78
2022/08/29 08:21:42;;;;;;;2.35;1.70;;;19.90;55.00;;;;;;5030291;28;20478;-79
2022/08/29 08:24:08;;;;;;;2.15;1.38;;;19.90;55.00;;;;;;5029364;28;20385;-79
2022/08/29 08:26:35;;;;;;;3.35;1.85;;;20.00;55.00;;;;;;5028918;28;20374;-79
2022/08/29 08:29:00;;;;;;;2.55;1.60;;;20.00;54.90;;;;;;5012574;28;20064;-79
2022/08/29 08:31:26;;;;;;;1.70;1.33;;;20.00;54.90;;;;;;5030273;28;20057;-79
2022/08/29 08:33:52;;;;;;;2.85;2.00;;;20.10;54.80;;;;;;5012472;28;20099;-79
2022/08/29 08:36:21;;;;;;;2.20;1.58;;;20.10;54.80;;;;;;5015034;28;20029;-79
2022/08/29 08:38:49;;;;;;;3.13;1.67;;;20.20;54.80;;;;;;5030801;28;20625;-79
2022/08/29 08:41:40;;;;;;;2.35;1.60;;;20.20;54.70;;;;;;5012676;28;20580;-79
2022/08/29 08:44:34;;;;;;;1.98;1.35;;;20.30;54.70;;;;;;5029282;28;20038;-79
2022/08/29 08:47:04;;;;;;;2.40;1.33;;;20.30;54.60;;;;;;5032176;28;20095;-79
2022/08/29 08:49:36;;;;;;;1.77;1.38;;;20.40;54.60;;;;;;5032897;28;20105;-80
2022/08/29 08:52:09;;;;;;;2.33;1.58;;;20.40;54.50;;;;;;5028855;28;20021;-80
2022/08/29 08:54:45;;;;;;;2.38;1.30;;;20.40;54.50;;;;;;5027558;28;20033;-79
2022/08/29 08:57:12;;;;;;;2.63;1.52;;;20.50;54.50;;;;;;5030137;28;20470;-80
2022/08/29 08:59:42;;;;;;;2.38;1.55;;;20.60;54.40;;;;;;5045415;28;20034;-81
2022/08/29 09:02:28;;;;;;;2.58;1.48;;;20.60;54.40;;;;;;5031290;28;20111;-79
2022/08/29 09:05:17;;;;;;;2.33;1.35;;;20.60;54.50;;;;;;5040058;28;20646;-81
2022/08/29 09:08:12;;;;;;;2.05;1.30;;;20.70;54.40;;;;;;5031552;28;20501;-82
2022/08/29 09:10:43;;;;;;;2.40;1.60;;;20.70;54.40;;;;;;5031620;28;20104;-82
2022/08/29 09:13:28;;;;;;;1.95;1.25;;;20.80;54.20;;;;;;5025117;28;20311;-81
2022/08/29 09:15:58;;;;;;;2.13;1.30;;;20.80;54.20;;;;;;5045054;28;20063;-82
2022/08/29 09:18:31;;;;;;;2.38;1.52;;;20.90;54.20;;;;;;5028421;28;20132;-81
2022/08/29 09:20:58;;;;;;;1.95;1.40;;;20.90;54.10;;;;;;5031939;28;20033;-81
2022/08/29 09:23:46;;;;;;;3.30;1.67;;;21.00;54.10;;;;;;5031728;28;20024;-81
2022/08/29 09:26:15;;;;;;;2.35;1.40;;;21.00;54.10;;;;;;5027989;28;20018;-81
2022/08/29 09:28:41;;;;;;;1.75;1.40;;;21.10;54.00;;;;;;5029310;28;20063;-81
2022/08/29 09:31:23;;;;;;;2.40;1.42;;;21.20;53.90;;;;;;5013079;28;20037;-81
2022/08/29 09:34:00;;;;;;;2.47;1.52;;;21.20;54.00;;;;;;5030481;28;20087;-81
2022/08/29 09:36:38;;;;;;;1.92;1.33;;;21.30;53.90;;;;;;5027484;28;20032;-80
2022/08/29 09:39:13;;;;;;;2.20;1.50;;;21.30;53.90;;;;;;5028208;28;20068;-80
2022/08/29 09:41:39;;;;;;;2.13;1.60;;;21.40;53.80;;;;;;5025736;28;20066;-81
2022/08/29 09:44:10;;;;;;;2.10;1.40;;;21.50;53.80;;;;;;5032445;28;20017;-80
2022/08/29 09:46:36;;;;;;;2.85;1.67;;;21.50;53.70;;;;;;5029456;28;20496;-80
2022/08/29 09:49:01;;;;;;;2.38;1.75;;;21.50;53.60;;;;;;5028074;28;20033;-80
2022/08/29 09:51:30;;;;;;;2.30;1.52;;;21.60;53.60;;;;;;5031030;28;20029;-80
2022/08/29 09:54:25;;;;;;;1.98;1.38;;;21.60;53.50;;;;;;5013476;28;20071;-80
2022/08/29 09:56:53;;;;;;;2.45;1.75;;;21.70;53.60;;;;;;5031285;28;20029;-81
2022/08/29 09:59:34;;;;;;;2.20;1.52;;;21.80;53.50;;;;;;5011318;28;20041;-81
2022/08/29 10:02:20;;;;;;;2.03;1.40;;;21.80;53.40;;;;;;5028361;28;20056;-81
2022/08/29 10:04:51;;;;;;;2.17;1.50;;;21.90;53.50;;;;;;5045289;28;20049;-80
2022/08/29 10:07:27;;;;;;;2.65;1.65;;;21.90;53.30;;;;;;5027676;28;20087;-81
2022/08/29 10:10:05;;;;;;;2.88;1.58;;;22.00;53.40;;;;;;5027619;28;20033;-81
2022/08/29 10:12:49;;;;;;;2.75;1.52;;;22.00;53.30;;;;;;5012624;28;20032;-81
2022/08/29 10:15:42;;;;;;;2.65;1.60;;;22.10;53.30;;;;;;5029603;28;20488;-81
2022/08/29 10:18:26;;;;;;;2.00;1.45;;;22.10;53.20;;;;;;5024327;28;20037;-81
2022/08/29 10:21:13;;;;;;;2.30;1.43;;;22.20;53.10;;;;;;5027930;28;20048;-80
2022/08/29 10:24:02;;;;;;;2.15;1.27;;;22.30;53.20;;;;;;5028694;28;20291;-81
2022/08/29 10:26:55;;;;;;;2.85;1.80;;;22.30;53.20;;;;;;5026567;28;20034;-81
2022/08/29 10:30:01;;;;;;;1.52;1.30;;;22.30;53.20;;;;;;5028441;28;20489;-81
2022/08/29 10:32:54;;;;;;;2.75;1.50;;;22.30;53.20;;;;;;5027379;28;20087;-81
2022/08/29 10:35:26;;;;;;;2.55;1.70;;;22.40;53.20;;;;;;5027793;28;20033;-81
2022/08/29 10:38:04;;;;;;;1.75;1.35;;;22.40;53.10;;;;;;5030752;28;20048;-80
2022/08/29 10:41:08;;;;;;;3.65;1.60;;;22.40;53.10;;;;;;5039998;28;20033;-81
2022/08/29 10:44:11;;;;;;;1.75;1.30;;;22.50;53.20;;;;;;5019777;28;20037;-80
2022/08/29 10:47:04;;;;;;;2.10;1.42;;;22.50;53.20;;;;;;5026962;28;20040;-81
2022/08/29 10:49:59;;;;;;;2.67;1.50;;;22.60;53.10;;;;;;5047576;28;20145;-80
2022/08/29 10:52:50;;;;;;;1.95;1.35;;;22.60;53.10;;;;;;5022311;28;20041;-81
2022/08/29 10:55:41;;;;;;;2.33;1.17;;;22.70;53.10;;;;;;5031703;28;20029;-81
2022/08/29 10:58:25;;;;;;;1.67;1.35;;;22.70;53.10;;;;;;5047323;28;20108;-81
2022/08/29 11:01:07;;;;;;;1.83;1.38;;;22.80;53.00;;;;;;5032264;28;20037;-81
2022/08/29 11:03:51;;;;;;;1.92;1.20;;;22.80;52.90;;;;;;5027969;28;20025;-81
2022/08/29 11:06:22;;;;;;;2.20;1.50;;;22.90;53.00;;;;;;5027810;28;20029;-81
2022/08/29 11:09:01;;;;;;;1.92;1.35;;;22.90;52.80;;;;;;5031790;28;20037;-80
2022/08/29 11:11:29;;;;;;;2.40;1.27;;;23.00;53.50;;;;;;5031261;28;20025;-81
2022/08/29 11:14:03;;;;;;;1.38;1.10;;;23.00;52.80;;;;;;5028093;28;20557;-81
2022/08/29 11:16:43;;;;;;;1.95;1.15;;;23.10;52.80;;;;;;5031981;28;20021;-84
2022/08/29 11:19:40;;;;;;;1.95;1.30;;;23.10;52.70;;;;;;5027428;28;20130;-83
2022/08/29 11:22:15;;;;;;;1.65;1.10;;;23.20;52.70;;;;;;5005886;28;20037;-83
2022/08/29 11:24:43;;;;;;;2.20;1.30;;;23.20;52.60;;;;;;5031455;28;20025;-84
2022/08/29 11:27:48;;;;;;;2.22;1.30;;;23.20;52.60;;;;;;5030224;28;20022;-84
2022/08/29 11:30:19;;;;;;;1.80;1.30;;;23.30;52.70;;;;;;4994797;28;20083;-84
2022/08/29 11:33:26;;;;;;;1.30;1.10;;;23.30;52.50;;;;;;5033387;28;20022;-83
2022/08/29 11:36:10;;;;;;;1.80;1.33;;;23.40;52.60;;;;;;5046724;28;20029;-82
2022/08/29 11:39:14;;;;;;;2.05;1.50;;;23.40;52.60;;;;;;5030665;28;20517;-82
2022/08/29 11:41:49;;;;;;;1.67;1.20;;;23.50;52.60;;;;;;5030525;28;20055;-82
2022/08/29 11:44:21;;;;;;;2.08;1.20;;;23.50;52.40;;;;;;5032406;28;20277;-82
2022/08/29 11:46:50;;;;;;;2.15;1.50;;;23.60;52.50;;;;;;5011092;28;20033;-82
2022/08/29 11:49:32;;;;;;;2.03;1.40;;;23.60;52.40;;;;;;5014349;28;20093;-81
2022/08/29 11:52:07;;;;;;;2.28;1.40;;;23.60;52.50;;;;;;5031579;28;20022;-81
2022/08/29 11:54:36;;;;;;;1.55;1.10;;;23.60;52.50;;;;;;5032103;28;20025;-81
2022/08/29 11:57:04;;;;;;;1.48;1.10;;;23.70;52.40;;;;;;5029638;28;20112;-81
2022/08/29 11:59:55;;;;;;;1.67;1.20;;;23.80;52.40;;;;;;5031300;28;20040;-83
2022/08/29 12:02:27;;;;;;;2.47;1.40;;;23.80;52.50;;;;;;5031618;28;20025;-82
2022/08/29 12:04:55;;;;;;;2.63;1.52;;;23.80;52.40;;;;;;5031882;28;20525;-82
2022/08/29 12:07:48;;;;;;;1.48;1.17;;;23.90;52.40;;;;;;5032453;28;20034;-83
2022/08/29 12:10:22;;;;;;;2.17;1.15;;;23.90;52.50;;;;;;5046049;28;20028;-83
2022/08/29 12:12:49;;;;;;;;;;;24.00;52.40;;;;;;5031119;28;20032;-83
2022/08/29 12:15:34;;;;;;;1.55;1.10;;;24.00;52.30;;;;;;5032979;28;19912;-83
2022/08/29 12:18:11;;;;;;;;;;;24.00;52.30;;;;;;5027335;28;20075;-83
2022/08/29 12:20:47;;;;;;;1.23;1.08;;;24.10;52.40;;;;;;5031649;28;19917;-83
2022/08/29 12:23:13;;;;;;;1.50;1.10;;;24.10;52.30;;;;;;5029809;28;20053;-83
2022/08/29 12:25:45;;;;;;;1.63;1.30;;;24.10;52.20;;;;;;5032240;28;20029;-83
2022/08/29 12:28:19;;;;;;;2.15;1.40;;;24.10;52.20;;;;;;5027832;28;20025;-83
2022/08/29 12:30:57;;;;;;;3.20;1.42;;;24.20;52.20;;;;;;5030563;28;20429;-83
2022/08/29 12:33:41;;;;;;;2.75;1.20;;;24.20;52.10;;;;;;5027946;28;20022;-80
2022/08/29 12:36:16;;;;;;;1.90;1.48;;;24.20;52.00;;;;;;5032842;28;20128;-80
2022/08/29 12:38:49;;;;;;;2.58;1.40;;;24.30;52.00;;;;;;5030582;28;20049;-81
2022/08/29 12:41:17;;;;;;;2.08;1.40;;;24.30;51.90;;;;;;5028962;28;20042;-80
2022/08/29 12:43:45;;;;;;;2.13;1.33;;;24.30;51.90;;;;;;5029533;28;20091;-81
2022/08/29 12:46:40;;;;;;;2.08;1.27;;;24.40;51.90;;;;;;5014712;28;20052;-81
2022/08/29 12:49:24;;;;;;;1.45;1.27;;;24.40;51.90;;;;;;5027705;28;20045;-81
2022/08/29 12:52:02;;;;;;;1.67;1.20;;;24.40;51.70;;;;;;5029286;28;20027;-80
2022/08/29 12:54:32;;;;;;;1.75;1.27;;;24.40;51.70;;;;;;5013277;28;20021;-79
2022/08/29 12:57:04;;;;;;;1.42;1.20;;;24.50;51.60;;;;;;5045869;28;20029;-81
2022/08/29 12:59:44;;;;;;;1.25;1.10;;;24.50;51.50;;;;;;5018684;28;20057;-80
2022/08/29 13:13:37;;;;;;;2.60;1.20;;;24.60;51.40;;;;;;4998077;28;20030;-80
2022/08/29 13:16:06;;;;;;;1.83;1.20;;;24.60;51.30;;;;;;4992211;28;20045;-80
2022/08/29 13:18:32;;;;;;;1.73;1.27;;;24.60;51.30;;;;;;5030736;28;20021;-80
2022/08/29 13:21:22;;;;;;;1.77;1.35;;;24.60;51.20;;;;;;5016866;28;20179;-80
2022/08/29 13:24:10;;;;;;;2.38;1.30;;;24.60;51.30;;;;;;5029167;28;20612;-81